Terminal Aerodrome Forecast
Issued by NWS Louisville, KY

Home | Current Version | Previous Version | Text Only | Print | Product List | Glossary On
Versions: 1 2 3 4 5 6 7 8 9 10 11 12 13 14 15 16 17 18
513
FTUS43 KLMK 121120
TAFLEX
TAF
KLEX 121120Z 1212/1312 VRB04KT P6SM BKN100
     FM121300 17004KT 6SM -SN BR BKN035
     FM121700 26007KT P6SM BKN025
     FM122100 28010G17KT 6SM BR VCSH BKN035
     FM130300 29010KT P6SM BKN035
     FM131000 31009KT P6SM SCT150=

USA.gov is the U.S. government's official web portal to all federal, state and local government web resources and services.